Time;durP1;ratioP1;P1;durP2;ratioP2;P2;SDS_P1;SDS_P2;PMS_P1;PMS_P2;Temp;Humidity;BMP_temperature;BMP_pressure;BME280_temperature;BME280_humidity;BME280_pressure;Samples;Min_cycle;Max_cycle;Signal;HPM_P1;HPM_P2
2022/07/19 00:00:56;;;;;;;5.32;3.60;;;18.30;99.90;;;;;;5046025;28;20414;-64
2022/07/19 00:03:22;;;;;;;6.13;3.83;;;18.20;99.90;;;;;;5050034;28;20069;-64
2022/07/19 00:05:48;;;;;;;5.95;3.38;;;18.40;99.90;;;;;;5051515;28;20068;-64
2022/07/19 00:08:16;;;;;;;6.68;3.92;;;18.20;99.90;;;;;;5053557;28;20075;-64
2022/07/19 00:10:42;;;;;;;6.13;4.05;;;18.20;99.90;;;;;;5051219;28;20498;-64
2022/07/19 00:13:07;;;;;;;5.55;3.60;;;18.10;99.90;;;;;;5048873;28;20045;-64
2022/07/19 00:15:33;;;;;;;7.13;3.55;;;18.20;99.90;;;;;;5050994;28;20388;-64
2022/07/19 00:17:58;;;;;;;4.97;3.00;;;18.10;99.90;;;;;;5044103;28;20045;-64
2022/07/19 00:20:24;;;;;;;8.90;3.80;;;18.10;99.90;;;;;;5047151;28;20044;-64
2022/07/19 00:22:50;;;;;;;6.18;3.80;;;17.70;99.90;;;;;;5047810;28;20431;-64
2022/07/19 00:25:15;;;;;;;6.40;3.47;;;17.80;99.90;;;;;;5057755;28;20032;-64
2022/07/19 00:27:42;;;;;;;5.53;3.88;;;17.80;99.90;;;;;;5045190;28;20487;-64
2022/07/19 00:30:09;;;;;;;5.93;3.20;;;17.90;99.90;;;;;;5051314;28;20403;-64
2022/07/19 00:32:34;;;;;;;6.68;4.05;;;17.80;99.90;;;;;;5050533;28;20051;-64
2022/07/19 00:35:00;;;;;;;6.85;4.45;;;17.70;99.90;;;;;;5053203;28;20048;-64
2022/07/19 00:37:26;;;;;;;8.48;4.45;;;17.70;99.90;;;;;;5052179;28;20104;-63
2022/07/19 00:39:51;;;;;;;9.48;5.10;;;17.70;99.90;;;;;;5049323;28;20759;-64
2022/07/19 00:42:18;;;;;;;6.32;4.50;;;17.60;99.90;;;;;;5046040;28;20041;-65
2022/07/19 00:44:43;;;;;;;9.05;4.75;;;17.80;99.90;;;;;;5049901;28;20037;-65
2022/07/19 00:47:09;;;;;;;10.63;4.65;;;17.70;99.90;;;;;;5051431;28;20044;-65
2022/07/19 00:49:34;;;;;;;10.30;6.55;;;17.80;99.90;;;;;;5050802;28;20041;-65
2022/07/19 00:52:03;;;;;;;7.80;5.28;;;17.60;99.90;;;;;;5043428;28;20094;-65
2022/07/19 00:54:30;;;;;;;11.35;5.55;;;17.50;99.90;;;;;;5051658;28;20040;-65
2022/07/19 00:56:59;;;;;;;9.50;4.55;;;17.60;99.90;;;;;;5050695;28;20049;-65
2022/07/19 00:59:26;;;;;;;8.38;4.68;;;17.80;99.90;;;;;;5045058;28;20506;-65
2022/07/19 01:01:55;;;;;;;6.43;3.65;;;17.70;99.90;;;;;;5051583;28;20045;-65
2022/07/19 01:04:23;;;;;;;7.72;4.45;;;17.50;99.90;;;;;;5052264;28;20029;-65
2022/07/19 01:06:49;;;;;;;10.15;5.85;;;17.30;99.90;;;;;;5050097;28;20044;-65
2022/07/19 01:09:14;;;;;;;11.40;6.90;;;17.30;99.90;;;;;;5044671;28;20029;-65
2022/07/19 01:11:40;;;;;;;11.45;7.07;;;17.40;99.90;;;;;;5050558;28;20576;-65
2022/07/19 01:14:06;;;;;;;9.13;4.90;;;17.20;99.90;;;;;;5048683;28;20628;-65
2022/07/19 01:16:31;;;;;;;6.45;4.50;;;17.20;99.90;;;;;;5048692;28;20033;-65
2022/07/19 01:18:57;;;;;;;11.55;5.63;;;17.20;99.90;;;;;;5047849;28;20075;-65
2022/07/19 01:21:25;;;;;;;8.50;4.40;;;17.20;99.90;;;;;;5052075;28;20037;-65
2022/07/19 01:23:50;;;;;;;7.90;4.38;;;17.10;99.90;;;;;;5048621;28;20124;-65
2022/07/19 01:26:17;;;;;;;9.32;4.53;;;17.20;99.90;;;;;;5046346;28;20116;-65
2022/07/19 01:28:46;;;;;;;8.52;5.18;;;17.00;99.90;;;;;;5052037;28;20041;-65
2022/07/19 01:31:12;;;;;;;6.60;4.63;;;17.20;99.90;;;;;;5047524;28;20080;-64
2022/07/19 01:33:41;;;;;;;11.00;6.05;;;17.40;99.90;;;;;;5050842;28;20037;-65
2022/07/19 01:36:07;;;;;;;10.52;7.00;;;17.30;99.90;;;;;;5049239;28;20041;-66
2022/07/19 01:38:33;;;;;;;12.10;7.07;;;17.30;99.90;;;;;;5049033;28;20037;-65
2022/07/19 01:40:59;;;;;;;14.20;7.97;;;17.20;99.90;;;;;;5044496;28;20048;-65
2022/07/19 01:43:25;;;;;;;12.38;6.25;;;16.90;99.90;;;;;;5038626;28;20494;-65
2022/07/19 01:45:52;;;;;;;7.35;5.38;;;17.10;99.90;;;;;;5050229;28;20036;-65
2022/07/19 01:48:18;;;;;;;7.47;4.78;;;17.00;99.90;;;;;;5047956;28;20111;-65
2022/07/19 01:50:43;;;;;;;6.30;4.03;;;16.80;99.90;;;;;;5044506;28;20187;-65
2022/07/19 01:53:09;;;;;;;7.90;4.10;;;17.00;99.90;;;;;;5048405;28;20040;-63
2022/07/19 01:55:34;;;;;;;9.75;4.40;;;16.70;99.90;;;;;;5050134;28;20052;-64
2022/07/19 01:58:00;;;;;;;8.77;4.45;;;17.00;99.90;;;;;;5049616;28;20052;-64
2022/07/19 02:00:26;;;;;;;8.63;4.70;;;16.90;99.90;;;;;;5052181;28;20049;-64
2022/07/19 02:02:51;;;;;;;9.65;5.57;;;17.00;99.90;;;;;;5063292;28;20035;-64
2022/07/19 02:05:17;;;;;;;11.45;6.65;;;17.10;99.90;;;;;;5056328;28;20076;-64
2022/07/19 02:07:42;;;;;;;11.57;6.57;;;16.80;99.90;;;;;;5051324;28;20414;-64
2022/07/19 02:10:09;;;;;;;8.98;5.30;;;17.00;99.90;;;;;;5050562;28;20117;-64
2022/07/19 02:12:34;;;;;;;9.90;5.93;;;16.80;99.90;;;;;;5041730;28;20491;-64
2022/07/19 02:15:00;;;;;;;10.73;5.35;;;17.00;99.90;;;;;;5050101;28;20131;-64
2022/07/19 02:17:26;;;;;;;9.70;5.00;;;16.80;99.90;;;;;;5050181;28;20036;-64
2022/07/19 02:19:51;;;;;;;10.20;4.93;;;16.80;99.90;;;;;;5049590;28;20479;-64
2022/07/19 02:22:20;;;;;;;9.85;6.50;;;16.80;99.90;;;;;;5057683;28;20488;-65
2022/07/19 02:24:45;;;;;;;7.88;4.50;;;16.90;99.90;;;;;;5049087;28;20091;-64
2022/07/19 02:27:11;;;;;;;8.82;4.70;;;16.80;99.90;;;;;;5052571;28;20111;-64
2022/07/19 02:29:37;;;;;;;12.15;6.47;;;16.90;99.90;;;;;;5051729;28;20590;-64
2022/07/19 02:32:03;;;;;;;12.60;5.63;;;16.90;99.90;;;;;;5050167;28;20073;-64
2022/07/19 02:34:29;;;;;;;10.00;4.45;;;16.80;99.90;;;;;;5050145;28;20037;-64
2022/07/19 02:36:57;;;;;;;7.13;4.80;;;16.90;99.90;;;;;;5053989;28;20052;-65
2022/07/19 02:39:22;;;;;;;10.10;4.68;;;17.30;99.90;;;;;;5053892;28;20103;-64
2022/07/19 02:41:48;;;;;;;6.05;4.00;;;17.40;99.90;;;;;;5051188;28;20483;-64
2022/07/19 02:44:13;;;;;;;7.18;4.22;;;17.70;99.90;;;;;;5055499;28;20033;-64
2022/07/19 02:46:39;;;;;;;8.93;4.47;;;17.50;99.90;;;;;;5050454;28;20455;-64
2022/07/19 02:49:04;;;;;;;7.18;3.92;;;17.70;99.90;;;;;;5030684;28;20037;-64
2022/07/19 02:51:30;;;;;;;7.88;4.82;;;17.90;99.90;;;;;;5049703;28;20068;-64
2022/07/19 02:53:56;;;;;;;9.05;4.50;;;18.00;99.90;;;;;;5048805;28;20034;-64
2022/07/19 02:56:21;;;;;;;6.63;4.50;;;18.20;99.90;;;;;;5049846;28;20123;-65
2022/07/19 02:58:47;;;;;;;9.18;4.07;;;18.50;99.90;;;;;;5054130;28;20041;-64
2022/07/19 03:01:12;;;;;;;8.80;4.78;;;18.60;99.90;;;;;;5050250;28;20040;-64
2022/07/19 03:03:43;;;;;;;10.02;4.18;;;18.80;99.90;;;;;;5051677;28;20041;-64
2022/07/19 03:06:13;;;;;;;7.65;4.82;;;18.80;99.90;;;;;;5049932;28;20040;-64
2022/07/19 03:08:39;;;;;;;7.25;3.92;;;18.80;99.90;;;;;;5044720;28;20519;-64
2022/07/19 03:11:05;;;;;;;9.10;4.65;;;18.80;99.90;;;;;;5053013;28;20045;-64
2022/07/19 03:13:30;;;;;;;8.70;4.53;;;18.70;99.90;;;;;;5042981;28;20128;-64
2022/07/19 03:15:56;;;;;;;8.70;4.80;;;18.90;99.90;;;;;;5043568;28;20039;-64
2022/07/19 03:18:21;;;;;;;9.27;4.78;;;18.90;99.90;;;;;;5046706;28;20036;-63
2022/07/19 03:20:47;;;;;;;8.57;4.25;;;18.80;99.90;;;;;;5049642;28;20483;-64
2022/07/19 03:23:13;;;;;;;10.27;4.43;;;18.90;99.90;;;;;;5050102;28;20068;-64
2022/07/19 03:25:38;;;;;;;7.00;4.07;;;18.90;99.90;;;;;;5051786;28;20041;-64
2022/07/19 03:28:06;;;;;;;8.40;4.75;;;19.00;99.90;;;;;;5048959;28;20444;-64
2022/07/19 03:30:32;;;;;;;6.20;3.53;;;18.90;99.90;;;;;;5049905;28;20041;-64
2022/07/19 03:32:58;;;;;;;6.85;4.20;;;18.70;99.90;;;;;;5050838;28;20450;-64
2022/07/19 03:35:24;;;;;;;6.35;4.00;;;18.70;99.90;;;;;;5051993;28;20040;-64
2022/07/19 03:37:50;;;;;;;8.18;3.30;;;18.70;99.90;;;;;;5054131;28;20080;-64
2022/07/19 03:40:15;;;;;;;6.88;3.90;;;18.60;99.90;;;;;;5050339;28;20494;-64
2022/07/19 03:42:44;;;;;;;7.15;3.25;;;18.70;99.90;;;;;;5052849;28;20037;-64
2022/07/19 03:45:10;;;;;;;4.95;3.63;;;18.70;99.90;;;;;;5052678;28;20032;-64
2022/07/19 03:47:36;;;;;;;7.15;4.32;;;18.50;99.90;;;;;;5053121;28;20041;-64
2022/07/19 03:50:02;;;;;;;6.63;3.92;;;18.70;99.90;;;;;;5053815;28;20485;-64
2022/07/19 03:52:27;;;;;;;8.05;3.22;;;18.80;99.90;;;;;;5058349;28;20410;-64
2022/07/19 03:54:53;;;;;;;9.20;3.72;;;18.90;99.90;;;;;;5053822;28;20473;-64
2022/07/19 03:57:18;;;;;;;5.78;3.80;;;18.70;99.90;;;;;;5053557;28;20410;-64
2022/07/19 03:59:46;;;;;;;7.43;3.67;;;18.90;99.90;;;;;;5051298;28;20108;-64
2022/07/19 04:02:12;;;;;;;5.60;3.30;;;18.90;99.90;;;;;;5057076;28;20048;-64
2022/07/19 04:04:38;;;;;;;5.47;2.80;;;19.00;99.90;;;;;;5052472;28;20045;-64
2022/07/19 04:07:03;;;;;;;7.20;3.65;;;19.00;99.90;;;;;;5054443;28;20044;-64
2022/07/19 04:09:29;;;;;;;8.68;3.70;;;18.70;99.90;;;;;;5054303;28;20384;-64
2022/07/19 04:11:54;;;;;;;6.88;3.53;;;18.70;99.90;;;;;;5059377;28;20520;-64
2022/07/19 04:14:20;;;;;;;7.13;3.45;;;18.50;99.90;;;;;;5052917;28;20048;-64
2022/07/19 04:16:45;;;;;;;8.35;3.55;;;18.80;99.90;;;;;;5054687;28;20051;-64
2022/07/19 04:19:11;;;;;;;7.50;3.90;;;18.90;99.90;;;;;;5052076;28;20116;-64
2022/07/19 04:21:39;;;;;;;6.18;3.40;;;19.00;99.90;;;;;;5051994;28;20041;-64
2022/07/19 04:24:05;;;;;;;5.97;3.53;;;18.90;99.90;;;;;;5052123;28;20055;-64
2022/07/19 04:26:30;;;;;;;6.55;3.75;;;18.90;99.90;;;;;;5050108;28;20119;-64
2022/07/19 04:28:56;;;;;;;6.55;4.05;;;18.70;99.90;;;;;;5053026;28;20380;-64
2022/07/19 04:31:21;;;;;;;5.50;3.15;;;18.70;99.90;;;;;;5052514;28;20517;-64
2022/07/19 04:33:47;;;;;;;4.30;3.47;;;18.60;99.90;;;;;;5053406;28;20048;-64
2022/07/19 04:36:12;;;;;;;6.93;3.47;;;18.50;99.90;;;;;;5051346;28;20434;-64
2022/07/19 04:38:38;;;;;;;7.85;3.85;;;18.60;99.90;;;;;;5057927;28;20098;-64
2022/07/19 04:41:04;;;;;;;7.18;3.60;;;18.60;99.90;;;;;;5053365;28;20051;-64
2022/07/19 04:43:29;;;;;;;5.97;3.42;;;18.70;99.90;;;;;;5058130;28;20045;-64
2022/07/19 04:45:56;;;;;;;9.98;3.80;;;18.60;99.90;;;;;;5054116;28;20037;-64
2022/07/19 04:48:22;;;;;;;8.65;4.85;;;18.70;99.90;;;;;;5056612;28;20071;-64
2022/07/19 04:50:47;;;;;;;7.15;3.72;;;18.70;99.90;;;;;;5052890;28;20487;-64
2022/07/19 04:53:13;;;;;;;6.20;3.60;;;18.90;99.90;;;;;;5055697;28;20495;-64
2022/07/19 04:55:38;;;;;;;8.45;4.65;;;18.90;99.90;;;;;;5050505;28;20407;-64
2022/07/19 04:58:04;;;;;;;8.05;4.10;;;18.90;99.90;;;;;;5052547;28;20392;-64
2022/07/19 05:00:30;;;;;;;9.30;4.38;;;20.20;99.90;;;;;;5051538;28;20133;-64
2022/07/19 05:02:56;;;;;;;6.65;3.30;;;19.20;99.90;;;;;;5051085;28;20033;-64
2022/07/19 05:05:22;;;;;;;6.22;3.47;;;19.10;99.90;;;;;;5051741;28;20090;-64
2022/07/19 05:07:48;;;;;;;8.63;3.42;;;18.90;99.90;;;;;;5058016;28;20041;-64
2022/07/19 05:10:13;;;;;;;6.55;3.92;;;19.40;99.90;;;;;;5047092;28;20044;-64
2022/07/19 05:12:40;;;;;;;5.80;3.33;;;19.40;99.90;;;;;;5047025;28;20136;-64
2022/07/19 05:15:06;;;;;;;6.20;3.55;;;19.70;99.90;;;;;;5051943;28;20032;-64
2022/07/19 05:17:32;;;;;;;5.82;3.35;;;20.00;99.90;;;;;;5054302;28;20076;-64
2022/07/19 05:19:58;;;;;;;5.93;3.65;;;20.30;99.90;;;;;;5057962;28;20071;-64
2022/07/19 05:22:25;;;;;;;9.63;4.03;;;20.80;99.90;;;;;;5052279;28;20029;-64
2022/07/19 05:24:52;;;;;;;10.38;3.83;;;20.90;99.90;;;;;;5051038;28;20082;-64
2022/07/19 05:27:18;;;;;;;8.50;4.10;;;21.20;99.90;;;;;;5051705;28;20504;-64
2022/07/19 05:29:43;;;;;;;6.68;3.13;;;21.30;99.90;;;;;;5058933;28;20041;-64
2022/07/19 05:32:09;;;;;;;6.95;3.72;;;21.10;99.90;;;;;;5055953;28;20037;-64
2022/07/19 05:34:38;;;;;;;5.72;3.28;;;21.20;99.90;;;;;;5056401;28;20072;-63
2022/07/19 05:37:04;;;;;;;9.32;3.40;;;21.20;99.90;;;;;;5045364;28;20041;-63
2022/07/19 05:39:29;;;;;;;8.38;3.40;;;21.30;99.90;;;;;;5055270;28;20055;-63
2022/07/19 05:41:55;;;;;;;5.30;3.50;;;21.30;99.90;;;;;;5049905;28;20403;-63
2022/07/19 05:44:21;;;;;;;8.80;3.42;;;21.20;99.90;;;;;;5051044;28;20065;-63
2022/07/19 05:46:47;;;;;;;6.93;3.95;;;21.30;99.90;;;;;;5050738;28;20041;-63
2022/07/19 05:49:15;;;;;;;6.10;3.55;;;21.00;99.90;;;;;;5051745;28;20029;-63
2022/07/19 05:51:41;;;;;;;5.10;3.33;;;21.40;99.90;;;;;;5050885;28;20044;-63
2022/07/19 05:54:07;;;;;;;5.35;3.78;;;21.50;99.90;;;;;;5049503;28;20029;-64
2022/07/19 05:56:32;;;;;;;8.52;3.17;;;21.30;99.90;;;;;;5049463;28;20094;-65
2022/07/19 05:58:58;;;;;;;7.50;3.35;;;21.40;99.90;;;;;;5053601;28;20119;-65
2022/07/19 06:01:24;;;;;;;4.25;3.33;;;21.90;99.90;;;;;;5050519;28;20033;-65
2022/07/19 06:03:51;;;;;;;7.22;3.83;;;21.90;99.90;;;;;;5049917;28;20057;-65
2022/07/19 06:06:18;;;;;;;5.70;3.67;;;21.90;99.90;;;;;;5051298;28;20170;-64
2022/07/19 06:08:46;;;;;;;6.13;2.90;;;22.00;99.90;;;;;;5051140;28;20383;-64
2022/07/19 06:11:12;;;;;;;4.70;3.08;;;22.30;99.90;;;;;;5045232;28;20041;-64
2022/07/19 06:13:38;;;;;;;9.90;3.38;;;22.30;99.90;;;;;;5053414;28;20186;-66
2022/07/19 06:16:05;;;;;;;6.15;3.08;;;22.30;99.90;;;;;;5050492;28;20080;-65
2022/07/19 06:18:34;;;;;;;7.88;3.30;;;22.40;99.90;;;;;;5054923;28;20040;-65
2022/07/19 06:21:10;;;;;;;5.65;2.92;;;22.70;99.90;;;;;;5050140;28;20045;-64
2022/07/19 06:23:37;;;;;;;7.28;3.33;;;22.70;99.90;;;;;;5044766;28;20082;-65
2022/07/19 06:26:04;;;;;;;4.40;2.70;;;23.20;99.90;;;;;;5049467;28;20040;-65
2022/07/19 06:28:29;;;;;;;8.57;2.97;;;23.50;99.90;;;;;;5041723;28;20490;-64
2022/07/19 06:30:55;;;;;;;6.97;3.03;;;25.40;99.90;;;;;;5049902;28;20041;-67
2022/07/19 06:33:21;;;;;;;4.28;2.63;;;23.70;99.90;;;;;;5050747;28;20467;-67
2022/07/19 06:35:47;;;;;;;4.28;2.53;;;23.80;99.90;;;;;;5047755;28;20124;-68
2022/07/19 06:38:12;;;;;;;7.65;2.78;;;23.90;99.90;;;;;;5048899;28;20064;-69
2022/07/19 06:40:38;;;;;;;5.05;2.35;;;24.30;99.90;;;;;;5048096;28;20049;-69
2022/07/19 06:43:04;;;;;;;6.35;2.92;;;24.40;99.90;;;;;;5052069;28;20509;-66
2022/07/19 06:45:30;;;;;;;4.72;2.45;;;24.70;99.90;;;;;;5046910;28;20041;-69
2022/07/19 06:47:55;;;;;;;6.75;2.67;;;25.20;99.90;;;;;;5041320;28;20480;-69
2022/07/19 06:50:21;;;;;;;5.45;2.45;;;24.80;99.90;;;;;;5045400;28;20040;-69
2022/07/19 06:52:47;;;;;;;6.05;2.40;;;24.80;99.90;;;;;;5042154;28;20049;-69
2022/07/19 06:55:15;;;;;;;6.32;2.70;;;24.60;99.90;;;;;;5046135;28;20044;-69
2022/07/19 06:57:41;;;;;;;4.60;2.20;;;24.50;99.90;;;;;;5043665;28;20508;-69
2022/07/19 07:00:09;;;;;;;5.40;2.42;;;25.50;99.90;;;;;;5039142;28;20080;-69
2022/07/19 07:02:39;;;;;;;5.15;2.13;;;24.80;99.90;;;;;;5050399;28;20123;-68
2022/07/19 07:05:06;;;;;;;5.05;2.50;;;24.40;99.90;;;;;;5040152;28;20488;-69
2022/07/19 07:07:32;;;;;;;5.25;1.77;;;24.70;99.90;;;;;;5048209;28;20410;-69
2022/07/19 07:09:58;;;;;;;6.85;2.28;;;24.50;99.90;;;;;;5053088;28;20036;-69
2022/07/19 07:12:23;;;;;;;5.40;2.30;;;24.60;99.90;;;;;;5054986;28;20124;-69
2022/07/19 07:14:49;;;;;;;3.70;1.73;;;24.90;99.90;;;;;;5054717;28;20490;-69
2022/07/19 07:17:14;;;;;;;4.50;1.83;;;24.70;99.90;;;;;;5055435;28;20044;-69
2022/07/19 07:19:40;;;;;;;6.20;1.95;;;26.70;99.90;;;;;;5055034;28;20057;-69
2022/07/19 07:22:05;;;;;;;4.95;2.15;;;26.00;99.90;;;;;;5055150;28;20375;-69
2022/07/19 07:24:31;;;;;;;8.10;2.50;;;25.00;99.90;;;;;;5070313;28;20032;-69
2022/07/19 07:26:57;;;;;;;5.35;1.90;;;25.40;99.90;;;;;;5073995;28;20501;-69
2022/07/19 07:29:23;;;;;;;5.53;2.00;;;25.30;99.90;;;;;;5052900;28;20089;-69
2022/07/19 07:31:49;;;;;;;5.95;2.03;;;25.20;99.90;;;;;;5054239;28;20032;-69
2022/07/19 07:34:16;;;;;;;4.00;1.98;;;25.50;99.90;;;;;;5042228;28;20515;-69
2022/07/19 07:36:43;;;;;;;6.35;1.92;;;25.30;99.90;;;;;;5042251;28;20041;-69
2022/07/19 07:39:10;;;;;;;5.85;1.95;;;25.50;99.90;;;;;;5048153;28;20033;-69
2022/07/19 07:41:35;;;;;;;8.52;2.50;;;25.60;99.90;;;;;;5052160;28;20142;-68
2022/07/19 07:44:01;;;;;;;6.63;2.00;;;25.80;99.90;;;;;;5052476;28;20507;-68
2022/07/19 07:46:27;;;;;;;7.65;1.98;;;26.50;99.90;;;;;;5051115;28;20040;-68
2022/07/19 07:48:53;;;;;;;4.50;1.65;;;25.90;99.90;;;;;;5052601;28;20152;-67
2022/07/19 07:51:18;;;;;;;3.35;1.45;;;26.00;99.90;;;;;;5049705;28;20526;-68
2022/07/19 07:53:44;;;;;;;4.60;1.83;;;27.20;99.90;;;;;;5052515;28;20087;-68
2022/07/19 07:56:09;;;;;;;4.03;2.03;;;27.30;99.90;;;;;;5052639;28;20055;-68
2022/07/19 07:58:35;;;;;;;5.82;1.88;;;27.30;99.90;;;;;;5051353;28;20060;-68
2022/07/19 08:01:01;;;;;;;4.15;2.05;;;26.20;99.90;;;;;;5052077;28;20033;-68
2022/07/19 08:03:26;;;;;;;5.13;1.80;;;26.50;99.90;;;;;;5051812;28;20033;-68
2022/07/19 08:05:52;;;;;;;4.00;1.80;;;26.60;99.90;;;;;;5051736;28;20091;-67
2022/07/19 08:08:18;;;;;;;3.83;1.73;;;26.60;99.90;;;;;;5047979;28;20083;-68
2022/07/19 08:10:43;;;;;;;7.07;1.80;;;28.60;99.90;;;;;;5043961;28;20102;-68
2022/07/19 08:13:09;;;;;;;3.42;1.17;;;27.00;99.90;;;;;;5051133;28;20372;-68
2022/07/19 08:15:36;;;;;;;3.92;1.67;;;26.70;99.90;;;;;;5053406;28;20044;-68
2022/07/19 08:18:03;;;;;;;6.57;1.70;;;26.90;99.90;;;;;;5045934;28;20044;-68
2022/07/19 08:20:28;;;;;;;4.38;1.80;;;27.20;99.90;;;;;;5049452;28;20364;-69
2022/07/19 08:22:54;;;;;;;9.23;2.00;;;27.10;99.90;;;;;;5049147;28;20040;-68
2022/07/19 08:25:19;;;;;;;3.47;1.58;;;28.80;99.90;;;;;;5053640;28;20406;-70
2022/07/19 08:27:45;;;;;;;3.95;1.73;;;27.30;99.90;;;;;;5050210;28;20041;-69
2022/07/19 08:30:12;;;;;;;4.32;1.38;;;27.90;99.90;;;;;;5050594;28;20145;-69
2022/07/19 08:32:38;;;;;;;3.28;1.38;;;29.30;99.90;;;;;;5052317;28;20037;-69
2022/07/19 08:35:08;;;;;;;2.83;1.70;;;29.50;99.90;;;;;;5051881;28;20044;-69
2022/07/19 08:37:34;;;;;;;4.82;1.45;;;28.00;99.90;;;;;;5048998;28;20037;-69
2022/07/19 08:40:00;;;;;;;4.97;1.60;;;28.70;99.90;;;;;;5050090;28;20037;-69
2022/07/19 08:42:26;;;;;;;5.82;1.52;;;28.10;99.90;;;;;;5046470;28;20095;-70
2022/07/19 08:44:53;;;;;;;5.38;1.42;;;28.20;99.90;;;;;;5046781;28;20066;-69
2022/07/19 08:47:20;;;;;;;4.13;1.20;;;28.20;99.90;;;;;;5051818;28;20033;-69
2022/07/19 08:49:47;;;;;;;4.55;1.73;;;28.30;99.90;;;;;;5051926;28;20052;-69
2022/07/19 08:52:13;;;;;;;7.97;1.52;;;28.30;99.90;;;;;;5052428;28;20377;-69
2022/07/19 08:54:39;;;;;;;3.88;1.13;;;29.30;99.90;;;;;;5050067;28;20047;-69
2022/07/19 08:59:50;;;;;;;3.00;1.38;;;28.90;99.90;;;;;;5049624;28;20060;-69
2022/07/19 09:02:16;;;;;;;4.28;1.50;;;29.90;99.90;;;;;;5046443;28;20040;-69
2022/07/19 09:04:42;;;;;;;3.53;1.23;;;28.90;99.90;;;;;;5047241;28;20041;-69
2022/07/19 09:07:07;;;;;;;3.58;1.10;;;28.90;99.90;;;;;;5051469;28;20048;-70
2022/07/19 09:09:36;;;;;;;4.00;1.10;;;30.50;99.90;;;;;;5052785;28;20047;-69
2022/07/19 09:12:04;;;;;;;4.60;1.25;;;29.20;99.90;;;;;;5049616;28;20029;-69
2022/07/19 09:14:30;;;;;;;4.50;1.48;;;29.40;99.90;;;;;;5048648;28;20090;-69
2022/07/19 09:17:03;;;;;;;4.70;1.38;;;30.30;99.90;;;;;;5045472;28;20079;-68
2022/07/19 09:19:32;;;;;;;6.38;1.52;;;29.60;99.90;;;;;;5043766;28;20122;-69
2022/07/19 09:22:11;;;;;;;3.90;1.08;;;30.90;99.90;;;;;;5051179;28;20490;-70
2022/07/19 09:24:42;;;;;;;5.63;0.90;;;30.00;99.90;;;;;;5043078;28;20487;-69
2022/07/19 09:27:10;;;;;;;3.58;1.02;;;30.20;99.90;;;;;;5040905;28;20095;-68
2022/07/19 09:29:39;;;;;;;4.32;1.02;;;30.10;99.90;;;;;;5040272;28;20132;-69
2022/07/19 09:32:07;;;;;;;8.65;1.30;;;30.20;99.90;;;;;;5048135;28;20042;-69
2022/07/19 09:34:43;;;;;;;3.20;0.90;;;30.20;99.90;;;;;;5048699;28;20403;-70
2022/07/19 09:37:27;;;;;;;4.82;1.30;;;30.00;99.90;;;;;;5052064;28;20388;-69
2022/07/19 09:40:04;;;;;;;5.07;1.10;;;30.40;99.90;;;;;;5047084;28;20041;-69
2022/07/19 09:42:52;;;;;;;5.10;0.88;;;31.20;99.90;;;;;;5049104;28;20446;-69
2022/07/19 09:45:25;;;;;;;2.35;0.88;;;30.60;99.60;;;;;;5048241;28;20064;-69
2022/07/19 09:47:50;;;;;;;2.58;1.13;;;31.40;99.70;;;;;;5046164;28;20051;-69
2022/07/19 09:50:19;;;;;;;4.60;1.00;;;30.80;99.20;;;;;;5049701;28;20041;-69
2022/07/19 09:52:46;;;;;;;7.05;1.70;;;32.00;99.90;;;;;;5051307;28;20128;-69
2022/07/19 09:55:12;;;;;;;3.22;1.10;;;30.90;99.90;;;;;;5042594;28;20032;-70
2022/07/19 09:57:47;;;;;;;7.38;1.10;;;30.80;99.10;;;;;;5050966;28;20053;-69
2022/07/19 10:00:15;;;;;;;5.60;1.40;;;31.20;98.30;;;;;;5048365;28;20091;-70
2022/07/19 10:02:50;;;;;;;8.10;1.15;;;31.30;97.90;;;;;;5051371;28;20059;-69
2022/07/19 10:05:16;;;;;;;5.70;1.33;;;32.30;98.80;;;;;;5046776;28;20438;-69
2022/07/19 10:07:42;;;;;;;3.13;1.20;;;32.40;97.90;;;;;;5045649;28;20048;-70
2022/07/19 10:10:13;;;;;;;4.78;0.85;;;31.20;96.70;;;;;;5048299;28;20041;-70
2022/07/19 10:12:41;;;;;;;4.05;0.88;;;31.50;96.40;;;;;;5046800;28;20045;-70
2022/07/19 10:15:08;;;;;;;24.85;3.55;;;32.20;96.30;;;;;;5049553;28;20399;-70
2022/07/19 10:18:02;;;;;;;4.35;0.80;;;31.60;96.00;;;;;;5042501;28;20442;-70
2022/07/19 10:20:29;;;;;;;14.05;2.33;;;31.60;95.30;;;;;;5043716;28;20087;-70
2022/07/19 10:23:02;;;;;;;2.95;0.77;;;31.80;95.50;;;;;;5048971;28;20032;-70
2022/07/19 10:25:41;;;;;;;4.30;1.20;;;32.00;95.70;;;;;;5043367;28;20064;-70
2022/07/19 10:28:29;;;;;;;4.03;0.88;;;31.80;94.70;;;;;;5041776;28;20526;-70
2022/07/19 10:30:55;;;;;;;12.43;1.08;;;31.60;95.10;;;;;;5045844;28;20073;-70
2022/07/19 10:33:33;;;;;;;8.77;1.42;;;31.70;94.90;;;;;;5041327;28;20053;-69
2022/07/19 10:36:32;;;;;;;2.05;0.52;;;32.00;93.40;;;;;;5047171;28;20086;-70
2022/07/19 10:39:36;;;;;;;4.72;1.23;;;32.20;93.90;;;;;;5040501;28;20048;-70
2022/07/19 10:42:21;;;;;;;3.90;0.82;;;32.10;93.90;;;;;;5045823;28;20041;-70
2022/07/19 10:44:55;;;;;;;4.45;0.80;;;32.50;94.50;;;;;;5052519;28;20120;-70
2022/07/19 10:47:40;;;;;;;3.85;0.65;;;32.40;94.00;;;;;;5054150;28;20494;-70
2022/07/19 10:50:09;;;;;;;;;;;32.20;93.00;;;;;;5047247;28;20442;-70
2022/07/19 10:52:36;;;;;;;6.25;1.33;;;32.30;93.40;;;;;;5048039;28;19917;-70
2022/07/19 10:55:17;;;;;;;5.18;1.30;;;33.70;94.10;;;;;;5049233;28;20116;-70
2022/07/19 10:57:52;;;;;;;1.90;0.80;;;32.70;93.50;;;;;;5047257;28;20057;-70
2022/07/19 11:00:20;;;;;;;5.97;1.20;;;32.60;93.00;;;;;;5043393;28;20523;-70
2022/07/19 11:02:47;;;;;;;6.15;0.95;;;34.30;94.00;;;;;;5047292;28;20044;-71
2022/07/19 11:05:29;;;;;;;1.95;0.75;;;33.40;93.40;;;;;;5045132;28;20064;-70
2022/07/19 11:07:56;;;;;;;4.97;0.77;;;32.40;92.60;;;;;;5049245;28;20094;-70
2022/07/19 11:10:29;;;;;;;5.07;1.48;;;33.30;93.40;;;;;;5049483;28;20127;-70
2022/07/19 11:12:57;;;;;;;8.02;2.50;;;32.70;93.10;;;;;;5050908;28;20077;-70
2022/07/19 11:15:23;;;;;;;7.30;1.20;;;33.30;93.30;;;;;;5048205;28;20479;-70
2022/07/19 11:17:53;;;;;;;3.30;1.00;;;32.90;93.30;;;;;;5046142;28;20037;-69
2022/07/19 11:20:21;;;;;;;4.22;0.90;;;33.50;93.70;;;;;;5051313;28;20041;-70
2022/07/19 11:22:48;;;;;;;8.27;1.23;;;32.80;93.50;;;;;;5044167;28;20064;-70
2022/07/19 11:25:16;;;;;;;4.15;0.82;;;34.50;93.60;;;;;;5050476;28;20533;-70
2022/07/19 11:27:46;;;;;;;3.97;1.10;;;32.90;92.70;;;;;;5048384;28;20045;-70
2022/07/19 11:30:15;;;;;;;16.33;1.60;;;33.00;92.80;;;;;;5048374;28;20051;-70
2022/07/19 11:32:42;;;;;;;2.92;1.13;;;32.80;93.10;;;;;;5043811;28;20045;-69
2022/07/19 11:35:11;;;;;;;5.93;1.20;;;33.10;93.40;;;;;;5049590;28;20048;-71
2022/07/19 11:37:39;;;;;;;2.95;1.00;;;33.20;92.70;;;;;;5043487;28;20034;-70
2022/07/19 11:40:09;;;;;;;7.85;1.10;;;34.90;93.40;;;;;;5051377;28;20135;-70
2022/07/19 11:42:39;;;;;;;4.00;1.10;;;32.90;92.50;;;;;;5050481;28;20042;-70
2022/07/19 11:45:23;;;;;;;8.95;1.90;;;33.30;91.70;;;;;;5050052;28;20036;-69
2022/07/19 11:47:55;;;;;;;5.97;1.50;;;33.40;91.40;;;;;;5050633;28;20442;-70
2022/07/19 11:50:23;;;;;;;2.97;0.70;;;34.40;91.80;;;;;;5052173;28;20283;-71
2022/07/19 11:52:57;;;;;;;4.93;0.73;;;33.30;91.30;;;;;;5049371;28;20041;-70
2022/07/19 11:55:29;;;;;;;8.35;1.00;;;33.80;91.20;;;;;;5051006;28;20049;-70
2022/07/19 11:57:56;;;;;;;6.28;1.10;;;33.30;91.30;;;;;;5046432;28;20110;-70
2022/07/19 12:00:22;;;;;;;5.63;1.30;;;34.70;92.20;;;;;;5048475;28;20106;-70
2022/07/19 12:03:18;;;;;;;2.97;1.02;;;33.10;91.80;;;;;;5045342;28;20478;-70
2022/07/19 12:06:05;;;;;;;5.10;1.10;;;33.50;90.80;;;;;;5052206;28;20518;-70
2022/07/19 12:08:36;;;;;;;3.92;1.10;;;33.40;92.40;;;;;;5039545;28;20041;-70
2022/07/19 12:11:18;;;;;;;4.88;0.90;;;33.50;90.50;;;;;;5047644;28;20049;-70
2022/07/19 12:13:44;;;;;;;3.25;1.05;;;33.60;90.80;;;;;;5053731;28;20135;-70
2022/07/19 12:16:13;;;;;;;5.35;1.13;;;34.40;91.10;;;;;;5046167;28;20076;-70
2022/07/19 12:18:44;;;;;;;4.93;0.90;;;33.50;90.50;;;;;;5049401;28;20063;-70
2022/07/19 12:21:38;;;;;;;4.43;0.65;;;33.60;88.80;;;;;;5050717;28;20044;-70
2022/07/19 12:24:14;;;;;;;7.07;0.90;;;33.80;87.10;;;;;;5040912;28;20123;-70
2022/07/19 12:26:55;;;;;;;1.42;0.52;;;33.80;86.80;;;;;;5045889;28;20187;-70
2022/07/19 12:29:22;;;;;;;1.20;0.47;;;33.90;85.10;;;;;;5046400;28;20471;-70
2022/07/19 12:31:49;;;;;;;3.67;0.50;;;33.60;85.90;;;;;;5048489;28;20040;-70
2022/07/19 12:34:16;;;;;;;3.30;0.60;;;35.10;87.50;;;;;;5046400;28;20036;-69
2022/07/19 12:36:42;;;;;;;3.03;1.05;;;34.50;87.00;;;;;;5050385;28;20045;-70
2022/07/19 12:39:28;;;;;;;3.20;0.90;;;34.20;83.80;;;;;;5050936;28;20364;-70
2022/07/19 12:42:16;;;;;;;3.97;0.50;;;34.20;84.20;;;;;;5048537;28;20045;-68
2022/07/19 12:44:41;;;;;;;4.63;0.95;;;34.10;82.90;;;;;;5047342;28;20099;-68
2022/07/19 12:47:07;;;;;;;10.07;1.35;;;36.10;85.90;;;;;;5047578;28;20048;-68
2022/07/19 12:49:48;;;;;;;4.43;0.68;;;34.40;84.50;;;;;;5049163;28;20044;-70
2022/07/19 12:52:16;;;;;;;7.43;0.60;;;34.00;86.50;;;;;;5045015;28;20106;-68